CSAV Lonquen — A8OT2 — position and weather

sailwx.info

Track history (hours):
 
Tides and Currents Weather Stations Pressure Air Temp Water Temp Dewpoint Dewpoint Depression Visibility Wind Speed Wind Dir Waves Ship Positions

CSAV Lonquen

Last reported at 2016-Aug-30 19:26 UTC. Time now 2016-Aug-30 20:55 UTC.
Position N 32°53' E 033°35'.

Length 261 m; draft 10.7 m.

Type: Ship (hazmat cat A). MMSI: 636091501.

Date/timePositionNaut miles runAvg speedWind from/ knotsBaromVisibWave heightAir tempDewpointWater temp
2016-Aug-30 19:26N 32°53' E 033°35'1314.4
2016-Aug-30 18:33N 33°05' E 033°31'1714.4
2016-Aug-30 17:23N 33°22' E 033°26'1214.7
2016-Aug-30 16:33N 33°33' E 033°23'1514.8
2016-Aug-30 15:33N 33°48' E 033°19'1514.9
2016-Aug-30 14:34N 34°02' E 033°15'1515.2
2016-Aug-30 13:33N 34°17' E 033°10'1515.3
2016-Aug-30 12:33N 34°32' E 033°06'8 8.2
2016-Aug-30 11:34N 34°39' E 033°01'0 0.0
2016-Aug-30 10:33N 34°39' E 033°01'0 0.0
2016-Aug-30 09:33N 34°39' E 033°01'0 0.0
2016-Aug-30 08:33N 34°39' E 033°01'0 0.0
2016-Aug-30 07:33N 34°39' E 033°01'0 0.0
2016-Aug-30 06:33N 34°39' E 033°01'0 0.0
2016-Aug-30 05:33N 34°39' E 033°01'0 0.0
2016-Aug-30 04:33N 34°39' E 033°01'0 0.0
2016-Aug-30 03:33N 34°39' E 033°01'0 0.0
2016-Aug-30 02:33N 34°39' E 033°01'0 0.0
2016-Aug-30 01:33N 34°39' E 033°01'0 0.0
2016-Aug-30 00:33N 34°39' E 033°01'0 0.0
2016-Aug-29 23:33N 34°39' E 033°01'0 0.0
2016-Aug-29 22:33N 34°39' E 033°01'0 0.0
2016-Aug-29 21:33N 34°39' E 033°01'0 0.0
2016-Aug-29 20:33N 34°39' E 033°01'0 0.0
2016-Aug-29 19:33N 34°39' E 033°01'0 0.0
2016-Aug-29 18:33N 34°39' E 033°01'0 0.0
2016-Aug-29 17:33N 34°39' E 033°01'0 0.0
2016-Aug-29 16:33N 34°39' E 033°01'0 0.0
2016-Aug-29 15:33N 34°39' E 033°01'0 0.0
2016-Aug-29 14:33N 34°39' E 033°01'0 0.0
2016-Aug-29 13:33N 34°39' E 033°01'0 0.0
2016-Aug-29 12:34N 34°39' E 033°01'2 1.9
2016-Aug-29 11:34N 34°39' E 033°03'2 1.6
2016-Aug-29 10:34N 34°38' E 033°04'7 7.2
2016-Aug-29 09:34N 34°31' E 033°01'1110.8
2016-Aug-29 08:34N 34°30' E 032°48'1111.2
2016-Aug-29 07:33N 34°30' E 032°35'87619.5
2016-Aug-27 10:33N 36°26' E 014°48'2020.1
2016-Aug-27 09:33N 36°31' E 014°24'2020.0
2016-Aug-27 08:33N 36°36' E 013°60'2121.1
2016-Aug-27 07:33N 36°40' E 013°34'2621.1
2016-Aug-27 06:18N 36°48' E 013°02'3620.7
2016-Aug-27 04:33N 36°57' E 012°18'2321.4
2016-Aug-27 03:28N 37°05' E 011°51'2621.4
2016-Aug-27 02:16N 37°16' E 011°22'2320.7
2016-Aug-27 01:08N 37°27' E 010°56'9420.4
2016-Aug-26 20:33N 37°18' E 008°59'2120.6
2016-Aug-26 19:33N 37°16' E 008°33'2020.1
2016-Aug-26 18:33N 37°16' E 008°08'6920.4
2016-Aug-26 15:10N 37°16' E 006°42'1420.2
2016-Aug-26 14:30N 37°16' E 006°24'16320.6
2016-Aug-26 06:33N 36°59' E 003°01'9020.8
2016-Aug-26 02:12N 36°46' E 001°09'1420.9
2016-Aug-26 01:33N 36°44' E 000°52'2120.8
2016-Aug-26 00:33N 36°41' E 000°27'2120.2
2016-Aug-25 23:32N 36°38' E 000°01'2319.3
2016-Aug-25 22:22N 36°35' W 000°27'4519.9
2016-Aug-25 20:08N 36°29' W 001°21'1220.1
2016-Aug-25 19:32N 36°27' W 001°36'2019.9
2016-Aug-25 18:32N 36°24' W 002°01'15120.8
2016-Aug-25 11:16N 36°01' W 005°06'1520.9
2016-Aug-25 10:33N 35°58' W 005°23'18119.9
2016-Aug-25 01:27N 36°30' W 009°05'1820.1
2016-Aug-25 00:33N 36°39' W 009°24'2019.9
2016-Aug-24 23:33N 36°57' W 009°35'2121.3
2016-Aug-24 22:33N 37°18' W 009°41'2221.6
2016-Aug-24 21:33N 37°39' W 009°48'2221.8
2016-Aug-24 20:33N 38°00' W 009°54'2221.6
2016-Aug-24 19:33N 38°21' W 010°00'2121.3
2016-Aug-24 18:33N 38°42' W 010°06'2221.6
2016-Aug-24 17:33N 39°03' W 010°06'2221.6
2016-Aug-24 16:33N 39°25' W 010°07'2221.4
2016-Aug-24 15:31N 39°47' W 010°07'2121.2
2016-Aug-24 14:33N 40°08' W 010°06'2221.5
2016-Aug-24 13:33N 40°29' W 010°06'2121.0
2016-Aug-24 12:33N 40°50' W 010°06'2221.3
2016-Aug-24 11:31N 41°12' W 010°06'2121.5
2016-Aug-24 10:33N 41°33' W 010°06'23520.5
2016-Aug-23 23:04N 45°19' W 008°34'1221.5
2016-Aug-23 22:31N 45°30' W 008°27'2020.8
2016-Aug-23 21:33N 45°48' W 008°13'2221.2
2016-Aug-23 20:31N 46°07' W 007°59'2020.6
2016-Aug-23 19:33N 46°24' W 007°45'2121.0
2016-Aug-23 18:34N 46°43' W 007°31'2221.2
2016-Aug-23 17:31N 47°03' W 007°18'9421.5
2016-Aug-23 13:10N 48°25' W 006°10'2423.0
2016-Aug-23 12:08N 48°46' W 005°53'1322.0
2016-Aug-23 11:33N 48°56' W 005°42'3916.5
2016-Aug-23 09:13N 49°16' W 004°51'1014.7
2016-Aug-23 08:33N 49°20' W 004°38'1414.5
2016-Aug-23 07:34N 49°28' W 004°19'1515.0
2016-Aug-23 06:33N 49°35' W 003°58'1616.3
2016-Aug-23 05:33N 49°44' W 003°37'1817.7
2016-Aug-23 04:34N 49°53' W 003°14'1818.2
2016-Aug-23 03:34N 50°00' W 002°48'1818.1
2016-Aug-23 02:34N 50°06' W 002°21'1616.3
2016-Aug-23 01:33N 50°10' W 001°56'1414.4
2016-Aug-23 00:33N 50°13' W 001°34'1313.2
2016-Aug-22 23:33N 50°17' W 001°15'1212.5
2016-Aug-22 22:33N 50°21' W 000°56'1413.6
2016-Aug-22 21:33N 50°24' W 000°35'1515.3
2016-Aug-22 20:33N 50°29' W 000°12'1717.0
2016-Aug-22 19:34N 50°33' E 000°13'1717.4
2016-Aug-22 18:33N 50°39' E 000°39'1616.5
2016-Aug-22 17:33N 50°49' E 001°01'1515.0
2016-Aug-22 16:33N 50°59' E 001°18'1312.9
2016-Aug-22 15:34N 51°07' E 001°34'1212.4
2016-Aug-22 14:34N 51°16' E 001°48'1312.6
2016-Aug-22 13:34N 51°26' E 002°00'1414.2
2016-Aug-22 12:34N 51°22' E 002°22'1514.7
2016-Aug-22 11:33N 51°23' E 002°46'1515.2
2016-Aug-22 10:34N 51°24' E 003°10'1615.7
2016-Aug-22 09:33N 51°26' E 003°35'9 9.2
2016-Aug-22 08:33N 51°21' E 003°48'1010.3
2016-Aug-22 07:33N 51°22' E 004°04'8 8.1
2016-Aug-22 06:34N 51°20' E 004°16'0 0.1
2016-Aug-22 05:34N 51°20' E 004°17'0 0.0
2016-Aug-22 04:34N 51°20' E 004°17'0 0.0
2016-Aug-22 03:33N 51°20' E 004°17'0 0.0
2016-Aug-22 02:34N 51°20' E 004°17'0 0.0
2016-Aug-22 01:33N 51°20' E 004°17'0 0.0
2016-Aug-22 00:33N 51°20' E 004°17'0 0.0
2016-Aug-21 23:34N 51°20' E 004°17'0 0.0
2016-Aug-21 22:33N 51°20' E 004°17'0 0.0
2016-Aug-21 21:31N 51°20' E 004°17'0 0.0
2016-Aug-21 20:34N 51°20' E 004°17'0 0.0
2016-Aug-21 19:31N 51°20' E 004°17'0 0.0
2016-Aug-21 18:29N 51°20' E 004°17'0 0.0
2016-Aug-21 17:32N 51°20' E 004°17'0 0.0
2016-Aug-21 16:33N 51°20' E 004°17'0 0.0
2016-Aug-21 15:33N 51°20' E 004°17'0 0.0
2016-Aug-21 14:33N 51°20' E 004°17'0 0.0
2016-Aug-21 13:33N 51°20' E 004°17'0 0.0
2016-Aug-21 12:31N 51°20' E 004°17'0 0.0
2016-Aug-21 11:33N 51°20' E 004°17'0 0.0
2016-Aug-21 10:33N 51°20' E 004°17'4 4.2
2016-Aug-21 09:34N 51°24' E 004°13'9 9.1
2016-Aug-21 08:33N 51°26' E 003°58'9 9.4
2016-Aug-21 07:33N 51°22' E 003°44'9 9.2
2016-Aug-21 06:34N 51°25' E 003°30'1716.6
2016-Aug-21 05:33N 51°24' E 003°04'1312.9
2016-Aug-21 04:33N 51°37' E 003°10'1111.3
2016-Aug-21 03:33N 51°47' E 003°16'  
Track history (hours):
 
Tides and Currents Weather Stations Pressure Air Temp Water Temp Dewpoint Dewpoint Depression Visibility Wind Speed Wind Dir Waves Ship Positions

CSAV Lonquen

Last reported at 2016-Aug-30 19:26 UTC. Time now 2016-Aug-30 20:55 UTC.
Position N 32°53' E 033°35'.

Length 261 m; draft 10.7 m.

Type: Ship (hazmat cat A). MMSI: 636091501.

Date/timePositionNaut miles runAvg speedWind from/ knotsBaromVisibWave heightAir tempDewpointWater temp
2016-Aug-30 19:26N 32°53' E 033°35'1314.4
2016-Aug-30 18:33N 33°05' E 033°31'1714.4
2016-Aug-30 17:23N 33°22' E 033°26'1214.7
2016-Aug-30 16:33N 33°33' E 033°23'1514.8
2016-Aug-30 15:33N 33°48' E 033°19'1514.9
2016-Aug-30 14:34N 34°02' E 033°15'1515.2
2016-Aug-30 13:33N 34°17' E 033°10'1515.3
2016-Aug-30 12:33N 34°32' E 033°06'8 8.2
2016-Aug-30 11:34N 34°39' E 033°01'0 0.0
2016-Aug-30 10:33N 34°39' E 033°01'0 0.0
2016-Aug-30 09:33N 34°39' E 033°01'0 0.0
2016-Aug-30 08:33N 34°39' E 033°01'0 0.0
2016-Aug-30 07:33N 34°39' E 033°01'0 0.0
2016-Aug-30 06:33N 34°39' E 033°01'0 0.0
2016-Aug-30 05:33N 34°39' E 033°01'0 0.0
2016-Aug-30 04:33N 34°39' E 033°01'0 0.0
2016-Aug-30 03:33N 34°39' E 033°01'0 0.0
2016-Aug-30 02:33N 34°39' E 033°01'0 0.0
2016-Aug-30 01:33N 34°39' E 033°01'0 0.0
2016-Aug-30 00:33N 34°39' E 033°01'0 0.0
2016-Aug-29 23:33N 34°39' E 033°01'0 0.0
2016-Aug-29 22:33N 34°39' E 033°01'0 0.0
2016-Aug-29 21:33N 34°39' E 033°01'0 0.0
2016-Aug-29 20:33N 34°39' E 033°01'0 0.0
2016-Aug-29 19:33N 34°39' E 033°01'0 0.0
2016-Aug-29 18:33N 34°39' E 033°01'0 0.0
2016-Aug-29 17:33N 34°39' E 033°01'0 0.0
2016-Aug-29 16:33N 34°39' E 033°01'0 0.0
2016-Aug-29 15:33N 34°39' E 033°01'0 0.0
2016-Aug-29 14:33N 34°39' E 033°01'0 0.0
2016-Aug-29 13:33N 34°39' E 033°01'0 0.0
2016-Aug-29 12:34N 34°39' E 033°01'2 1.9
2016-Aug-29 11:34N 34°39' E 033°03'2 1.6
2016-Aug-29 10:34N 34°38' E 033°04'7 7.2
2016-Aug-29 09:34N 34°31' E 033°01'1110.8
2016-Aug-29 08:34N 34°30' E 032°48'1111.2
2016-Aug-29 07:33N 34°30' E 032°35'87619.5
2016-Aug-27 10:33N 36°26' E 014°48'2020.1
2016-Aug-27 09:33N 36°31' E 014°24'2020.0
2016-Aug-27 08:33N 36°36' E 013°60'2121.1
2016-Aug-27 07:33N 36°40' E 013°34'2621.1
2016-Aug-27 06:18N 36°48' E 013°02'3620.7
2016-Aug-27 04:33N 36°57' E 012°18'2321.4
2016-Aug-27 03:28N 37°05' E 011°51'2621.4
2016-Aug-27 02:16N 37°16' E 011°22'2320.7
2016-Aug-27 01:08N 37°27' E 010°56'9420.4
2016-Aug-26 20:33N 37°18' E 008°59'2120.6
2016-Aug-26 19:33N 37°16' E 008°33'2020.1
2016-Aug-26 18:33N 37°16' E 008°08'6920.4
2016-Aug-26 15:10N 37°16' E 006°42'1420.2
2016-Aug-26 14:30N 37°16' E 006°24'16320.6
2016-Aug-26 06:33N 36°59' E 003°01'9020.8
2016-Aug-26 02:12N 36°46' E 001°09'1420.9
2016-Aug-26 01:33N 36°44' E 000°52'2120.8
2016-Aug-26 00:33N 36°41' E 000°27'2120.2
2016-Aug-25 23:32N 36°38' E 000°01'2319.3
2016-Aug-25 22:22N 36°35' W 000°27'4519.9
2016-Aug-25 20:08N 36°29' W 001°21'1220.1
2016-Aug-25 19:32N 36°27' W 001°36'2019.9
2016-Aug-25 18:32N 36°24' W 002°01'15120.8
2016-Aug-25 11:16N 36°01' W 005°06'1520.9
2016-Aug-25 10:33N 35°58' W 005°23'18119.9
2016-Aug-25 01:27N 36°30' W 009°05'1820.1
2016-Aug-25 00:33N 36°39' W 009°24'2019.9
2016-Aug-24 23:33N 36°57' W 009°35'2121.3
2016-Aug-24 22:33N 37°18' W 009°41'2221.6
2016-Aug-24 21:33N 37°39' W 009°48'2221.8
2016-Aug-24 20:33N 38°00' W 009°54'2221.6
2016-Aug-24 19:33N 38°21' W 010°00'2121.3
2016-Aug-24 18:33N 38°42' W 010°06'2221.6
2016-Aug-24 17:33N 39°03' W 010°06'2221.6
2016-Aug-24 16:33N 39°25' W 010°07'2221.4
2016-Aug-24 15:31N 39°47' W 010°07'2121.2
2016-Aug-24 14:33N 40°08' W 010°06'2221.5
2016-Aug-24 13:33N 40°29' W 010°06'2121.0
2016-Aug-24 12:33N 40°50' W 010°06'2221.3
2016-Aug-24 11:31N 41°12' W 010°06'2121.5
2016-Aug-24 10:33N 41°33' W 010°06'23520.5
2016-Aug-23 23:04N 45°19' W 008°34'1221.5
2016-Aug-23 22:31N 45°30' W 008°27'2020.8
2016-Aug-23 21:33N 45°48' W 008°13'2221.2
2016-Aug-23 20:31N 46°07' W 007°59'2020.6
2016-Aug-23 19:33N 46°24' W 007°45'2121.0
2016-Aug-23 18:34N 46°43' W 007°31'2221.2
2016-Aug-23 17:31N 47°03' W 007°18'9421.5
2016-Aug-23 13:10N 48°25' W 006°10'2423.0
2016-Aug-23 12:08N 48°46' W 005°53'1322.0
2016-Aug-23 11:33N 48°56' W 005°42'3916.5
2016-Aug-23 09:13N 49°16' W 004°51'1014.7
2016-Aug-23 08:33N 49°20' W 004°38'1414.5
2016-Aug-23 07:34N 49°28' W 004°19'1515.0
2016-Aug-23 06:33N 49°35' W 003°58'1616.3
2016-Aug-23 05:33N 49°44' W 003°37'1817.7
2016-Aug-23 04:34N 49°53' W 003°14'1818.2
2016-Aug-23 03:34N 50°00' W 002°48'1818.1
2016-Aug-23 02:34N 50°06' W 002°21'1616.3
2016-Aug-23 01:33N 50°10' W 001°56'1414.4
2016-Aug-23 00:33N 50°13' W 001°34'1313.2
2016-Aug-22 23:33N 50°17' W 001°15'1212.5
2016-Aug-22 22:33N 50°21' W 000°56'1413.6
2016-Aug-22 21:33N 50°24' W 000°35'1515.3
2016-Aug-22 20:33N 50°29' W 000°12'1717.0
2016-Aug-22 19:34N 50°33' E 000°13'1717.4
2016-Aug-22 18:33N 50°39' E 000°39'1616.5
2016-Aug-22 17:33N 50°49' E 001°01'1515.0
2016-Aug-22 16:33N 50°59' E 001°18'1312.9
2016-Aug-22 15:34N 51°07' E 001°34'1212.4
2016-Aug-22 14:34N 51°16' E 001°48'1312.6
2016-Aug-22 13:34N 51°26' E 002°00'1414.2
2016-Aug-22 12:34N 51°22' E 002°22'1514.7
2016-Aug-22 11:33N 51°23' E 002°46'1515.2
2016-Aug-22 10:34N 51°24' E 003°10'1615.7
2016-Aug-22 09:33N 51°26' E 003°35'9 9.2
2016-Aug-22 08:33N 51°21' E 003°48'1010.3
2016-Aug-22 07:33N 51°22' E 004°04'8 8.1
2016-Aug-22 06:34N 51°20' E 004°16'0 0.1
2016-Aug-22 05:34N 51°20' E 004°17'0 0.0
2016-Aug-22 04:34N 51°20' E 004°17'0 0.0
2016-Aug-22 03:33N 51°20' E 004°17'0 0.0
2016-Aug-22 02:34N 51°20' E 004°17'0 0.0
2016-Aug-22 01:33N 51°20' E 004°17'0 0.0
2016-Aug-22 00:33N 51°20' E 004°17'0 0.0
2016-Aug-21 23:34N 51°20' E 004°17'0 0.0
2016-Aug-21 22:33N 51°20' E 004°17'0 0.0
2016-Aug-21 21:31N 51°20' E 004°17'0 0.0
2016-Aug-21 20:34N 51°20' E 004°17'0 0.0
2016-Aug-21 19:31N 51°20' E 004°17'0 0.0
2016-Aug-21 18:29N 51°20' E 004°17'0 0.0
2016-Aug-21 17:32N 51°20' E 004°17'0 0.0
2016-Aug-21 16:33N 51°20' E 004°17'0 0.0
2016-Aug-21 15:33N 51°20' E 004°17'0 0.0
2016-Aug-21 14:33N 51°20' E 004°17'0 0.0
2016-Aug-21 13:33N 51°20' E 004°17'0 0.0
2016-Aug-21 12:31N 51°20' E 004°17'0 0.0
2016-Aug-21 11:33N 51°20' E 004°17'0 0.0
2016-Aug-21 10:33N 51°20' E 004°17'4 4.2
2016-Aug-21 09:34N 51°24' E 004°13'9 9.1
2016-Aug-21 08:33N 51°26' E 003°58'9 9.4
2016-Aug-21 07:33N 51°22' E 003°44'9 9.2
2016-Aug-21 06:34N 51°25' E 003°30'1716.6
2016-Aug-21 05:33N 51°24' E 003°04'1312.9
2016-Aug-21 04:33N 51°37' E 003°10'1111.3
2016-Aug-21 03:33N 51°47' E 003°16'  

Dump ship's entire track history